Time;durP1;ratioP1;P1;durP2;ratioP2;P2;SDS_P1;SDS_P2;PMS_P1;PMS_P2;Temp;Humidity;BMP_temperature;BMP_pressure;BME280_temperature;BME280_humidity;BME280_pressure;Samples;Min_cycle;Max_cycle;Signal;HPM_P1;HPM_P2
2023/06/22 00:01:50;;;;;;;9.15;7.93;;;;;;;19.74;93.04;65055.69;5093570;28;20200;-56
2023/06/22 00:04:16;;;;;;;8.90;7.18;;;;;;;19.71;94.09;65052.38;5093709;28;20697;-57
2023/06/22 00:06:41;;;;;;;9.40;7.00;;;;;;;19.58;94.29;65040.56;5093930;28;20265;-55
2023/06/22 00:09:07;;;;;;;8.38;7.13;;;;;;;19.52;93.70;65028.28;5093923;28;20303;-55
2023/06/22 00:11:33;;;;;;;8.77;6.90;;;;;;;19.47;94.07;65022.78;5093443;28;20207;-56
2023/06/22 00:13:59;;;;;;;11.00;7.90;;;;;;;19.39;94.96;65013.94;5093629;28;20220;-54
2023/06/22 00:16:25;;;;;;;9.65;7.63;;;;;;;19.30;96.43;65004.53;5093327;28;20210;-55
2023/06/22 00:18:50;;;;;;;15.88;8.27;;;;;;;19.23;96.44;65001.91;5093245;28;20306;-56
2023/06/22 00:21:16;;;;;;;8.73;7.22;;;;;;;19.23;96.68;64996.78;5093252;28;20238;-55
2023/06/22 00:23:41;;;;;;;9.25;8.27;;;;;;;19.18;96.85;64991.28;5093589;28;20626;-54
2023/06/22 00:26:07;;;;;;;9.60;7.70;;;;;;;19.10;97.27;64985.56;5093236;28;20280;-54
2023/06/22 00:28:35;;;;;;;8.57;7.50;;;;;;;19.15;97.79;64990.50;5093092;28;20701;-55
2023/06/22 00:31:00;;;;;;;10.50;8.73;;;;;;;19.33;96.57;65010.44;5093027;28;20282;-57
2023/06/22 00:33:28;;;;;;;11.00;8.55;;;;;;;19.42;96.87;65019.78;5092724;28;20213;-55
2023/06/22 00:35:53;;;;;;;9.20;8.20;;;;;;;19.31;97.32;65008.19;5092549;28;20694;-54
2023/06/22 00:38:20;;;;;;;10.25;8.20;;;;;;;19.36;97.14;65016.28;5092704;28;20216;-54
2023/06/22 00:40:45;;;;;;;10.52;9.35;;;;;;;19.33;96.79;65009.84;5092802;28;20294;-57
2023/06/22 00:43:11;;;;;;;10.10;8.50;;;;;;;19.35;97.48;65015.19;5092753;28;20246;-58
2023/06/22 00:45:36;;;;;;;10.82;7.57;;;;;;;19.35;97.44;65012.63;5092893;28;20200;-57
2023/06/22 00:48:03;;;;;;;9.27;7.57;;;;;;;19.26;97.13;65000.13;5092750;28;20200;-58
2023/06/22 00:50:33;;;;;;;9.13;8.07;;;;;;;19.36;96.47;65016.28;5092797;28;20207;-58
2023/06/22 00:53:08;;;;;;;10.77;7.90;;;;;;;19.20;96.89;64999.16;5074471;28;20200;-54
2023/06/22 00:55:38;;;;;;;10.05;6.80;;;;;;;19.19;95.16;64997.50;5092365;28;20294;-54
2023/06/22 00:58:09;;;;;;;8.15;7.35;;;;;;;19.11;95.80;64986.09;5092304;28;20192;-55
2023/06/22 01:00:35;;;;;;;8.43;7.40;;;;;;;19.09;96.83;64989.00;5092325;28;20200;-54
2023/06/22 01:03:02;;;;;;;8.55;6.90;;;;;;;18.99;98.01;64972.84;5092673;28;20218;-54
2023/06/22 01:05:30;;;;;;;10.98;8.27;;;;;;;19.01;99.29;64973.06;5092953;28;20245;-54
2023/06/22 01:08:31;;;;;;;8.95;7.05;;;;;;;19.06;99.40;64980.59;5091452;28;20196;-55
2023/06/22 01:11:45;;;;;;;8.63;7.53;;;;;;;19.14;99.25;64989.41;5049619;28;20342;-58
2023/06/22 01:14:24;;;;;;;8.07;7.00;;;;;;;19.07;99.51;64979.13;5075752;28;20227;-55
2023/06/22 01:16:51;;;;;;;9.15;7.90;;;;;;;19.15;99.07;64990.50;5092818;28;20200;-58
2023/06/22 01:19:55;;;;;;;7.38;6.60;;;;;;;19.18;99.41;64993.84;5092656;28;20250;-58
2023/06/22 01:22:24;;;;;;;7.63;6.93;;;;;;;19.03;100.00;64977.81;5051246;28;20239;-57
2023/06/22 01:25:24;;;;;;;8.00;7.20;;;;;;;18.99;100.00;64975.97;5092996;28;20208;-58
2023/06/22 01:27:49;;;;;;;10.02;7.55;;;;;;;19.17;100.00;64990.16;5092549;28;20201;-56
2023/06/22 01:30:18;;;;;;;8.40;7.60;;;;;;;19.17;100.00;64990.16;5092403;28;20295;-61
2023/06/22 01:32:44;;;;;;;8.00;7.20;;;;;;;19.17;100.00;64992.72;5092300;28;20215;-55
2023/06/22 01:35:11;;;;;;;8.93;7.55;;;;;;;19.11;100.00;64983.53;5092470;28;20207;-56
2023/06/22 01:37:38;;;;;;;8.30;7.50;;;;;;;19.18;100.00;64993.84;5092421;28;20291;-57
2023/06/22 01:40:08;;;;;;;8.88;7.28;;;;;;;19.25;100.00;64999.56;5092258;28;20215;-53
2023/06/22 01:42:34;;;;;;;12.82;7.90;;;;;;;19.26;100.00;65003.22;5092277;28;20612;-54
2023/06/22 01:45:02;;;;;;;8.88;7.88;;;;;;;19.23;100.00;64999.91;5091957;28;20759;-54
2023/06/22 01:47:28;;;;;;;10.43;7.55;;;;;;;19.21;100.00;64997.13;5092406;28;20180;-57
2023/06/22 01:49:53;;;;;;;8.90;7.75;;;;;;;19.15;100.00;64987.97;5092557;28;20212;-54
2023/06/22 01:52:21;;;;;;;8.82;7.97;;;;;;;19.16;100.00;64994.75;5092270;28;20192;-58
2023/06/22 01:54:48;;;;;;;8.55;7.22;;;;;;;19.14;100.00;64986.88;5091947;28;20238;-54
2023/06/22 01:57:13;;;;;;;8.65;7.75;;;;;;;19.13;100.00;64990.88;5092206;28;20257;-54
2023/06/22 01:59:53;;;;;;;10.32;7.45;;;;;;;19.29;100.00;65005.97;5091970;28;20212;-54
2023/06/22 02:02:26;;;;;;;8.82;7.93;;;;;;;19.16;100.00;64991.63;5091990;28;20204;-58
2023/06/22 02:04:58;;;;;;;9.48;8.43;;;;;;;19.03;100.00;64977.28;5092135;28;20212;-58
2023/06/22 02:07:32;;;;;;;12.02;7.97;;;;;;;18.95;100.00;64965.88;5092030;28;20215;-59
2023/06/22 02:09:59;;;;;;;11.90;7.95;;;;;;;18.92;100.00;64968.25;5092266;28;20204;-59
2023/06/22 02:12:27;;;;;;;9.63;7.95;;;;;;;19.09;100.00;64981.91;5092057;28;20196;-55
2023/06/22 02:14:53;;;;;;;9.27;8.38;;;;;;;19.16;100.00;64991.63;5092137;28;20208;-59
2023/06/22 02:17:19;;;;;;;9.30;7.68;;;;;;;19.14;100.00;64989.41;5091927;28;20264;-59
2023/06/22 02:19:45;;;;;;;9.68;8.05;;;;;;;19.16;100.00;64994.19;5091464;28;20757;-58
2023/06/22 02:22:13;;;;;;;11.02;7.80;;;;;;;19.01;100.00;64977.63;5091534;28;20207;-59
2023/06/22 02:24:38;;;;;;;9.70;7.93;;;;;;;19.01;100.00;64975.06;5091716;28;20216;-53
2023/06/22 02:27:06;;;;;;;8.77;7.88;;;;;;;18.75;100.00;64943.81;5091533;28;20196;-55
2023/06/22 02:29:32;;;;;;;10.63;8.07;;;;;;;18.76;100.00;64950.59;5091452;28;20673;-59
2023/06/22 02:31:58;;;;;;;9.30;8.40;;;;;;;18.85;100.00;64955.41;5091562;28;20198;-55
2023/06/22 02:34:23;;;;;;;11.02;8.38;;;;;;;18.95;100.00;64966.44;5091791;28;20212;-57
2023/06/22 02:36:52;;;;;;;10.82;7.95;;;;;;;18.95;100.00;64965.88;5091289;28;20253;-57
2023/06/22 02:39:23;;;;;;;9.32;8.32;;;;;;;18.89;100.00;64961.81;5091534;28;20216;-56
2023/06/22 02:41:52;;;;;;;9.05;8.25;;;;;;;18.92;100.00;64965.16;5090918;28;20219;-57
2023/06/22 02:44:19;;;;;;;11.63;8.68;;;;;;;18.85;100.00;64960.53;5091040;28;20230;-57
2023/06/22 02:46:45;;;;;;;9.35;8.10;;;;;;;18.78;100.00;64949.69;5090840;28;20662;-56
2023/06/22 02:49:11;;;;;;;8.35;7.13;;;;;;;18.66;100.00;64936.47;5090883;28;20265;-57
2023/06/22 02:51:39;;;;;;;9.15;8.25;;;;;;;18.75;100.00;64948.94;5091035;28;20198;-55
2023/06/22 02:54:07;;;;;;;9.60;8.52;;;;;;;18.71;100.00;64941.97;5091462;28;20223;-59
2023/06/22 02:56:33;;;;;;;12.70;9.55;;;;;;;18.73;100.00;64944.72;5091080;28;20192;-56
2023/06/22 02:59:01;;;;;;;9.88;8.27;;;;;;;18.62;100.00;64935.16;5091133;28;20268;-57
2023/06/22 03:01:29;;;;;;;9.20;7.28;;;;;;;18.60;100.00;64927.28;5090370;28;20223;-56
2023/06/22 03:03:55;;;;;;;8.75;7.75;;;;;;;18.77;100.00;64951.13;5090738;28;20227;-55
2023/06/22 03:06:28;;;;;;;10.27;8.68;;;;;;;18.80;100.00;64954.47;5090791;28;20212;-54
2023/06/22 03:08:58;;;;;;;12.32;8.75;;;;;;;18.87;100.00;64960.16;5072481;28;20287;-54
2023/06/22 03:11:23;;;;;;;11.10;8.20;;;;;;;19.04;100.00;64978.94;5090627;28;20336;-54
2023/06/22 03:13:49;;;;;;;9.73;8.73;;;;;;;18.94;100.00;64965.34;5090196;28;20215;-62
2023/06/22 03:16:14;;;;;;;12.13;8.82;;;;;;;18.91;100.00;64961.47;5090452;28;20292;-61
2023/06/22 03:18:40;;;;;;;26.08;20.15;;;;;;;18.90;100.00;64962.94;5090350;28;20200;-56
2023/06/22 03:21:05;;;;;;;10.77;9.10;;;;;;;18.90;100.00;64962.94;5090480;28;20223;-57
2023/06/22 03:23:31;;;;;;;29.15;19.42;;;;;;;18.93;100.00;64968.78;5090675;28;20212;-55
2023/06/22 03:25:56;;;;;;;13.82;9.23;;;;;;;18.85;100.00;64957.97;5090304;28;20222;-55
2023/06/22 03:28:21;;;;;;;9.98;8.80;;;;;;;18.89;100.00;64959.28;5090301;28;20577;-57
2023/06/22 03:30:47;;;;;;;12.63;9.25;;;;;;;18.91;100.00;64964.03;5090299;28;20670;-59
2023/06/22 03:33:13;;;;;;;10.18;8.82;;;;;;;19.10;100.00;64985.00;5093745;28;20273;-53
2023/06/22 03:35:38;;;;;;;10.65;9.23;;;;;;;19.16;100.00;64994.19;5094327;28;20574;-58
2023/06/22 03:38:04;;;;;;;13.55;9.73;;;;;;;19.11;100.00;64986.66;5094399;28;20215;-58
2023/06/22 03:40:29;;;;;;;12.95;9.32;;;;;;;19.04;100.00;64980.94;5094206;28;20272;-54
2023/06/22 03:42:55;;;;;;;9.75;8.25;;;;;;;19.00;100.00;64973.97;5093944;28;20207;-58
2023/06/22 03:45:20;;;;;;;11.73;8.52;;;;;;;18.85;100.00;64957.41;5094382;28;20228;-57
2023/06/22 03:47:46;;;;;;;17.70;9.95;;;;;;;18.81;100.00;64953.00;5093868;28;20279;-56
2023/06/22 03:50:12;;;;;;;15.60;9.50;;;;;;;18.77;100.00;64949.13;5093522;28;20699;-56
2023/06/22 03:52:37;;;;;;;13.35;9.65;;;;;;;18.80;100.00;64951.91;5093345;28;20716;-57
2023/06/22 03:55:03;;;;;;;14.80;9.05;;;;;;;18.92;100.00;64965.16;5093562;28;20255;-57
2023/06/22 03:57:28;;;;;;;14.93;9.70;;;;;;;18.89;100.00;64959.28;5093351;28;20697;-57
2023/06/22 03:59:57;;;;;;;15.52;9.77;;;;;;;18.70;100.00;64943.44;5093281;28;20207;-54
2023/06/22 04:02:23;;;;;;;11.82;9.52;;;;;;;18.50;100.00;64916.25;5093597;28;20172;-54
2023/06/22 04:04:48;;;;;;;11.82;9.45;;;;;;;18.41;100.00;64909.97;5093635;28;20242;-54
2023/06/22 04:07:14;;;;;;;12.75;10.00;;;;;;;18.63;100.00;64933.69;5075162;28;20605;-55
2023/06/22 04:09:39;;;;;;;13.45;9.88;;;;;;;18.74;100.00;64942.72;5093496;28;20613;-54
2023/06/22 04:12:05;;;;;;;15.02;10.27;;;;;;;18.65;100.00;64935.34;5093341;28;20215;-58
2023/06/22 04:14:31;;;;;;;12.60;10.88;;;;;;;18.50;100.00;64921.91;5093381;28;20574;-58
2023/06/22 04:16:57;;;;;;;14.27;10.98;;;;;;;18.41;100.00;64909.97;5093456;28;20196;-57
2023/06/22 04:19:23;;;;;;;15.75;12.82;;;;;;;18.40;100.00;64908.84;5093402;28;20212;-55
2023/06/22 04:21:48;;;;;;;18.05;13.23;;;;;;;18.41;100.00;64907.41;5093408;28;20639;-56
2023/06/22 04:24:14;;;;;;;15.52;12.98;;;;;;;18.64;100.00;64934.25;5093498;28;20704;-55
2023/06/22 04:26:47;;;;;;;14.77;11.07;;;;;;;18.99;100.00;64970.84;5093490;28;20196;-60
2023/06/22 04:29:13;;;;;;;14.27;11.80;;;;;;;19.09;100.00;64986.44;5100718;22;20318;-54
2023/06/22 04:31:39;;;;;;;16.10;12.25;;;;;;;19.14;100.00;64989.41;5093482;28;20656;-54
2023/06/22 04:34:06;;;;;;;17.52;11.07;;;;;;;19.34;100.00;65008.41;5093132;28;20314;-54
2023/06/22 04:36:41;;;;;;;14.10;11.55;;;;;;;19.41;100.00;65018.69;5093028;28;20291;-58
2023/06/22 04:39:09;;;;;;;12.65;10.93;;;;;;;19.43;100.00;65021.47;5092843;28;20218;-57
2023/06/22 04:41:42;;;;;;;14.80;11.02;;;;;;;19.55;100.00;65031.59;5092632;28;20196;-57
2023/06/22 04:44:23;;;;;;;15.50;11.27;;;;;;;19.44;100.00;65025.13;5092708;28;20220;-57
2023/06/22 04:47:08;;;;;;;15.98;10.85;;;;;;;19.59;100.00;65036.56;5092937;28;20203;-56
2023/06/22 04:49:35;;;;;;;14.65;11.13;;;;;;;19.58;100.00;65038.03;5092927;28;20269;-56
2023/06/22 04:52:08;;;;;;;14.30;11.20;;;;;;;19.57;100.00;65036.94;5093308;28;20203;-56
2023/06/22 04:54:36;;;;;;;12.05;10.73;;;;;;;19.46;100.00;65022.22;5092927;28;20228;-54
2023/06/22 04:57:03;;;;;;;16.70;11.77;;;;;;;19.47;100.00;65023.31;5092815;28;20196;-54
2023/06/22 04:59:30;;;;;;;17.10;12.10;;;;;;;19.59;100.00;65038.56;5093423;28;20220;-57
2023/06/22 05:02:02;;;;;;;14.52;11.05;;;;;;;20.28;100.00;65116.81;5093019;28;20572;-54
2023/06/22 05:04:31;;;;;;;14.60;12.35;;;;;;;20.35;100.00;65121.97;5092829;28;20269;-55
2023/06/22 05:06:57;;;;;;;25.98;17.48;;;;;;;20.37;100.00;65124.19;5074305;28;20700;-53
2023/06/22 05:09:23;;;;;;;31.67;18.58;;;;;;;20.61;100.00;65150.72;5093051;28;20212;-59
2023/06/22 05:11:49;;;;;;;20.25;13.60;;;;;;;20.47;100.00;65135.25;5092850;28;20214;-58
2023/06/22 05:14:15;;;;;;;16.90;13.23;;;;;;;20.30;100.00;65113.91;5092436;28;20697;-59
2023/06/22 05:16:44;;;;;;;16.30;12.90;;;;;;;20.05;100.00;65089.38;5092283;28;20211;-59
2023/06/22 05:19:10;;;;;;;16.98;12.75;;;;;;;19.95;100.00;65078.88;5092099;28;20245;-57
2023/06/22 05:21:36;;;;;;;19.65;12.65;;;;;;;19.99;100.00;65082.75;5092181;28;20196;-57
2023/06/22 05:24:02;;;;;;;21.05;12.75;;;;;;;20.41;100.00;65128.63;5092527;28;20584;-56
2023/06/22 05:26:29;;;;;;;17.15;13.00;;;;;;;20.93;100.00;65184.09;5092456;28;20278;-55
2023/06/22 05:28:55;;;;;;;18.10;13.70;;;;;;;21.13;100.00;65207.69;5090485;28;20215;-56
2023/06/22 05:31:20;;;;;;;18.90;14.65;;;;;;;21.20;100.00;65215.97;5090122;28;20203;-57
2023/06/22 05:33:47;;;;;;;15.07;12.65;;;;;;;21.24;100.00;65220.41;5091347;28;20235;-54
2023/06/22 05:36:12;;;;;;;15.88;12.88;;;;;;;21.16;98.71;65208.97;5092121;28;20206;-56
2023/06/22 05:38:39;;;;;;;12.55;10.10;;;;;;;21.17;95.96;65212.66;5090993;28;20208;-56
2023/06/22 05:41:05;;;;;;;13.98;10.85;;;;;;;21.44;99.19;65242.50;5092338;28;20252;-57
2023/06/22 05:43:31;;;;;;;16.88;11.68;;;;;;;21.61;98.23;65258.75;5074363;28;20692;-57
2023/06/22 05:45:57;;;;;;;19.42;12.63;;;;;;;21.63;95.80;65263.53;5074291;28;20207;-56
2023/06/22 05:48:22;;;;;;;13.25;11.38;;;;;;;21.66;96.04;65263.72;5092081;28;20212;-54
2023/06/22 05:50:48;;;;;;;20.17;13.10;;;;;;;21.79;98.95;65280.13;5092207;28;20204;-55
2023/06/22 05:53:13;;;;;;;14.60;12.05;;;;;;;21.77;99.54;65276.44;5092006;28;20224;-56
2023/06/22 05:55:39;;;;;;;19.90;13.23;;;;;;;22.13;96.97;65317.78;5091605;28;20204;-56
2023/06/22 05:58:05;;;;;;;20.33;13.75;;;;;;;22.27;96.17;65330.69;5092002;28;20208;-57
2023/06/22 06:00:30;;;;;;;18.52;12.35;;;;;;;22.23;96.32;65326.81;5092044;28;20211;-55
2023/06/22 06:02:56;;;;;;;21.85;15.20;;;;;;;22.24;91.80;65327.94;5091746;28;20258;-54
2023/06/22 06:05:22;;;;;;;19.02;14.15;;;;;;;21.96;93.67;65296.94;5091737;28;20677;-55
2023/06/22 06:07:48;;;;;;;24.15;15.55;;;;;;;21.89;98.14;65293.78;5091873;28;20236;-55
2023/06/22 06:10:13;;;;;;;21.45;14.13;;;;;;;21.88;99.15;65290.66;5091981;28;20244;-61
2023/06/22 06:12:39;;;;;;;30.40;12.70;;;;;;;22.08;100.00;65307.66;5091958;28;20206;-56
2023/06/22 06:15:04;;;;;;;18.08;14.20;;;;;;;22.20;95.76;65323.50;5091713;28;20254;-54
2023/06/22 06:17:30;;;;;;;17.65;13.55;;;;;;;22.28;96.37;65331.81;5091753;28;20200;-59
2023/06/22 06:19:55;;;;;;;28.88;13.52;;;;;;;22.54;95.33;65363.69;5091951;28;20204;-59
2023/06/22 06:22:23;;;;;;;17.27;13.77;;;;;;;22.47;91.73;65350.81;5091640;28;20265;-59
2023/06/22 06:24:49;;;;;;;21.92;14.23;;;;;;;22.57;96.30;65363.91;5091593;28;20216;-58
2023/06/22 06:27:15;;;;;;;15.70;10.88;;;;;;;22.84;97.61;65395.84;5091584;28;20199;-59
2023/06/22 06:29:40;;;;;;;19.98;13.93;;;;;;;22.81;93.38;65389.94;5092122;28;20282;-60
2023/06/22 06:32:06;;;;;;;15.65;12.38;;;;;;;22.97;96.66;65405.66;5091507;28;20196;-59
2023/06/22 06:34:32;;;;;;;15.95;10.18;;;;;;;23.08;96.72;65419.84;5091870;28;20586;-57
2023/06/22 06:36:57;;;;;;;16.63;12.05;;;;;;;23.28;90.01;65442.56;5091616;28;20213;-58
2023/06/22 06:39:22;;;;;;;14.90;12.07;;;;;;;23.39;89.09;65454.22;5091312;28;20701;-57
2023/06/22 06:41:48;;;;;;;18.00;11.30;;;;;;;23.55;88.78;65471.41;5091389;28;20210;-57
2023/06/22 06:44:13;;;;;;;21.98;12.40;;;;;;;23.52;87.07;65468.06;5091435;28;20306;-55
2023/06/22 06:46:39;;;;;;;17.92;12.98;;;;;;;23.59;79.94;65475.84;5091389;28;20203;-54
2023/06/22 06:49:04;;;;;;;16.33;12.10;;;;;;;23.46;79.38;65461.41;5091170;28;20219;-60
2023/06/22 06:51:29;;;;;;;18.55;12.40;;;;;;;23.14;81.33;65426.50;5091308;28;20624;-55
2023/06/22 06:53:55;;;;;;;16.67;12.13;;;;;;;23.05;83.24;65417.09;5091110;28;20651;-58
2023/06/22 06:56:20;;;;;;;18.25;11.27;;;;;;;23.05;83.57;65419.66;5091160;28;20200;-55
2023/06/22 06:58:46;;;;;;;12.38;10.88;;;;;;;23.26;89.74;65437.22;5091271;28;20220;-57
2023/06/22 07:01:14;;;;;;;14.57;11.57;;;;;;;23.46;84.69;65461.97;5091092;28;20199;-60
2023/06/22 07:03:40;;;;;;;16.63;11.80;;;;;;;23.35;85.79;65452.91;5091004;28;20231;-56
2023/06/22 07:06:05;;;;;;;14.15;10.68;;;;;;;23.28;87.32;65442.56;5090955;28;20555;-56
2023/06/22 07:08:31;;;;;;;16.52;11.48;;;;;;;23.40;85.29;65454.78;5091251;28;20758;-59
2023/06/22 07:10:56;;;;;;;14.65;11.20;;;;;;;23.34;89.66;65449.25;5090954;28;20291;-57
2023/06/22 07:13:22;;;;;;;14.20;10.80;;;;;;;23.66;89.60;65483.56;5090952;28;20215;-56
2023/06/22 07:15:47;;;;;;;14.73;11.65;;;;;;;23.71;88.54;65492.25;5090857;28;20276;-56
2023/06/22 07:18:12;;;;;;;13.45;10.52;;;;;;;23.92;89.57;65512.41;5072723;28;20219;-54
2023/06/22 07:20:39;;;;;;;17.30;11.27;;;;;;;24.02;86.97;65520.91;5090819;28;20207;-57
2023/06/22 07:23:05;;;;;;;18.38;10.68;;;;;;;24.24;86.27;65547.34;5090928;28;20215;-59
2023/06/22 07:25:30;;;;;;;15.30;11.02;;;;;;;24.29;84.25;65553.44;5090844;28;20207;-61
2023/06/22 07:28:03;;;;;;;15.98;10.25;;;;;;;24.47;85.62;65573.41;5090605;28;20207;-57
2023/06/22 07:30:29;;;;;;;12.75;10.45;;;;;;;24.59;83.98;65586.16;5090662;28;20207;-55
2023/06/22 07:32:55;;;;;;;15.38;11.63;;;;;;;24.56;81.22;65580.81;5090405;28;20203;-55
2023/06/22 07:35:20;;;;;;;12.68;10.65;;;;;;;24.62;82.45;65586.91;5090712;28;20198;-55
2023/06/22 07:37:46;;;;;;;18.80;11.98;;;;;;;24.65;81.74;65593.38;5090654;28;20210;-57
2023/06/22 07:40:11;;;;;;;16.27;10.60;;;;;;;24.62;82.38;65587.47;5090579;28;20216;-54
2023/06/22 07:42:37;;;;;;;11.57;10.38;;;;;;;24.69;82.20;65597.81;5090561;28;20184;-55
2023/06/22 07:45:04;;;;;;;14.30;9.85;;;;;;;24.75;80.76;65604.47;5090834;28;20299;-56
2023/06/22 07:47:29;;;;;;;12.40;9.57;;;;;;;24.89;80.91;65619.47;5090696;28;20330;-55
2023/06/22 07:49:57;;;;;;;16.23;10.82;;;;;;;24.94;79.63;65620.41;5090537;28;20291;-55
2023/06/22 07:52:24;;;;;;;18.42;9.50;;;;;;;25.08;80.99;65640.00;5090484;28;20277;-55
2023/06/22 07:54:50;;;;;;;13.10;9.68;;;;;;;25.08;76.96;65637.97;5090697;28;20217;-59
2023/06/22 07:57:15;;;;;;;12.20;9.88;;;;;;;25.24;78.87;65658.31;5090579;28;20196;-56
2023/06/22 07:59:41;;;;;;;17.15;10.07;;;;;;;25.08;76.75;65640.53;5090919;28;20584;-56
2023/06/22 08:02:08;;;;;;;11.10;9.77;;;;;;;25.30;79.51;65664.97;5090507;28;20619;-60
2023/06/22 08:04:34;;;;;;;11.82;10.27;;;;;;;25.26;74.63;65659.97;5089169;28;20226;-60
2023/06/22 08:07:00;;;;;;;11.65;9.95;;;;;;;25.31;74.59;65666.06;5072141;28;20205;-57
2023/06/22 08:09:29;;;;;;;14.15;11.35;;;;;;;25.36;71.08;65671.06;5072423;28;20212;-61
2023/06/22 08:11:56;;;;;;;14.63;10.73;;;;;;;25.54;70.53;65691.63;5090370;28;20208;-60
2023/06/22 08:14:22;;;;;;;15.43;10.95;;;;;;;25.63;72.24;65698.47;5090385;28;20655;-58
2023/06/22 08:16:48;;;;;;;13.85;10.40;;;;;;;25.63;70.74;65701.06;5090506;28;20204;-55
2023/06/22 08:19:13;;;;;;;20.77;10.93;;;;;;;25.23;75.82;65657.19;5093684;28;20214;-55
2023/06/22 08:21:39;;;;;;;10.93;9.13;;;;;;;25.35;76.88;65664.78;5093747;28;20208;-55
2023/06/22 08:24:04;;;;;;;11.80;10.23;;;;;;;25.38;73.93;65675.84;5094039;28;20238;-55
2023/06/22 08:26:30;;;;;;;14.43;11.02;;;;;;;25.59;67.94;65696.63;5093625;28;20200;-57
2023/06/22 08:28:55;;;;;;;14.65;10.98;;;;;;;25.45;68.95;65684.19;5075342;28;20208;-56
2023/06/22 08:34:05;;;;;;;15.20;10.98;;;;;;;25.48;72.16;65682.38;5093633;28;20249;-57
2023/06/22 08:36:35;;;;;;;12.13;9.98;;;;;;;25.58;76.04;65692.91;5093483;28;20200;-55
2023/06/22 08:39:02;;;;;;;12.70;11.35;;;;;;;25.67;74.26;65700.34;5093250;28;20753;-57
2023/06/22 08:41:28;;;;;;;14.50;10.80;;;;;;;25.65;73.89;65703.81;5093248;28;20668;-55
2023/06/22 08:43:54;;;;;;;12.35;10.15;;;;;;;26.06;74.99;65748.25;5093294;28;20247;-56
2023/06/22 08:46:23;;;;;;;13.65;11.02;;;;;;;26.01;74.96;65743.25;5093168;28;20204;-56
2023/06/22 08:48:48;;;;;;;10.10;9.15;;;;;;;25.89;77.00;65729.94;5093293;28;20240;-55
2023/06/22 08:51:14;;;;;;;13.10;10.40;;;;;;;25.92;75.97;65732.72;5093107;28;20234;-60
2023/06/22 08:53:39;;;;;;;17.13;10.88;;;;;;;25.82;72.63;65721.59;5092937;28;20262;-55
2023/06/22 08:56:05;;;;;;;13.18;11.48;;;;;;;25.97;75.90;65738.81;5093113;28;20270;-60
2023/06/22 08:58:31;;;;;;;14.93;11.13;;;;;;;26.00;72.62;65739.00;5092936;28;20263;-58
2023/06/22 09:00:56;;;;;;;14.07;11.32;;;;;;;26.23;70.60;65764.56;5093013;28;20172;-56
2023/06/22 09:03:26;;;;;;;15.82;11.48;;;;;;;26.26;66.86;65770.50;5092706;28;20224;-55
2023/06/22 09:05:51;;;;;;;16.35;11.57;;;;;;;26.39;68.59;65782.91;5092935;28;20290;-56
2023/06/22 09:08:17;;;;;;;16.05;11.63;;;;;;;26.36;67.47;65779.00;5100137;22;20234;-58
2023/06/22 09:10:42;;;;;;;16.83;11.50;;;;;;;26.50;66.04;65797.69;5092667;28;20290;-57
2023/06/22 09:13:08;;;;;;;15.25;11.52;;;;;;;26.41;69.28;65787.16;5092618;28;20180;-56
2023/06/22 09:15:34;;;;;;;15.13;11.00;;;;;;;26.58;65.59;65804.00;5092814;28;20200;-54
2023/06/22 09:18:00;;;;;;;11.63;10.43;;;;;;;26.79;64.56;65824.22;5074544;28;20745;-55
2023/06/22 09:20:25;;;;;;;10.93;9.73;;;;;;;26.77;64.94;65824.00;5092551;28;20401;-57
2023/06/22 09:22:50;;;;;;;15.13;9.68;;;;;;;26.90;61.94;65838.47;5092735;28;20200;-61
2023/06/22 09:25:16;;;;;;;14.35;10.32;;;;;;;27.07;62.35;65857.38;5092420;28;20204;-61
2023/06/22 09:27:41;;;;;;;15.63;10.48;;;;;;;27.17;62.28;65869.03;5092390;28;20195;-59
2023/06/22 09:30:07;;;;;;;13.73;10.15;;;;;;;27.31;66.60;65886.66;5091079;28;20273;-58
2023/06/22 09:32:33;;;;;;;13.57;10.98;;;;;;;27.38;65.99;65892.41;5092353;28;20227;-59
2023/06/22 09:34:58;;;;;;;16.40;10.45;;;;;;;27.54;66.22;65911.66;5092377;28;20208;-57
2023/06/22 09:37:24;;;;;;;9.30;8.05;;;;;;;27.51;62.50;65908.91;5092326;28;20345;-58
2023/06/22 09:39:49;;;;;;;9.02;8.15;;;;;;;27.46;60.36;65900.19;5092699;28;20645;-57
2023/06/22 09:42:14;;;;;;;11.30;8.38;;;;;;;27.72;61.46;65926.50;5092048;28;20212;-57
2023/06/22 09:44:40;;;;;;;9.95;8.52;;;;;;;27.75;60.75;65935.03;5092580;28;20223;-56
2023/06/22 09:47:06;;;;;;;16.15;8.25;;;;;;;27.86;61.49;65945.22;5092423;28;20235;-56
2023/06/22 09:49:32;;;;;;;9.27;8.32;;;;;;;27.90;59.58;65949.09;5092480;28;20247;-56
2023/06/22 09:51:57;;;;;;;9.57;8.60;;;;;;;27.96;61.15;65953.78;5092365;28;20295;-58
2023/06/22 09:54:23;;;;;;;11.80;8.80;;;;;;;28.04;55.63;65965.25;5092163;28;20212;-56
2023/06/22 09:56:48;;;;;;;12.05;8.85;;;;;;;28.03;56.07;65966.75;5092041;28;20235;-55
2023/06/22 09:59:14;;;;;;;12.30;10.02;;;;;;;27.93;55.19;65952.47;5092170;28;20208;-55
2023/06/22 10:01:39;;;;;;;10.98;8.85;;;;;;;28.00;54.72;65960.81;5073870;28;20204;-60
2023/06/22 10:04:05;;;;;;;11.27;10.00;;;;;;;27.94;55.40;65956.72;5092268;28;20322;-57
2023/06/22 10:06:30;;;;;;;15.10;9.63;;;;;;;28.03;55.98;65966.75;5092077;28;20196;-56
2023/06/22 10:08:56;;;;;;;16.08;10.45;;;;;;;28.00;55.94;65960.25;5092306;28;20677;-56
2023/06/22 10:11:26;;;;;;;10.40;9.30;;;;;;;28.14;55.10;65978.97;5091912;28;20673;-58
2023/06/22 10:13:52;;;;;;;8.45;7.47;;;;;;;28.15;54.26;65977.50;5091994;28;20561;-60
2023/06/22 10:16:17;;;;;;;7.93;7.13;;;;;;;28.33;52.63;65999.00;5091852;28;20208;-55
2023/06/22 10:18:43;;;;;;;10.25;9.20;;;;;;;28.40;53.60;66004.22;5091644;28;20218;-56
2023/06/22 10:21:09;;;;;;;13.05;9.40;;;;;;;28.36;52.97;66000.31;5091701;28;20200;-55
2023/06/22 10:23:35;;;;;;;13.63;10.10;;;;;;;28.28;53.66;65990.88;5091737;28;20705;-58
2023/06/22 10:26:00;;;;;;;13.13;9.88;;;;;;;28.37;52.36;66000.88;5091770;28;20218;-58
2023/06/22 10:28:26;;;;;;;12.20;10.13;;;;;;;28.76;50.79;66044.88;5091865;28;20211;-57
2023/06/22 10:30:51;;;;;;;11.25;8.98;;;;;;;29.17;52.84;66089.97;5091585;28;20204;-58
2023/06/22 10:33:16;;;;;;;9.60;8.60;;;;;;;29.20;54.44;66093.31;5091755;28;20287;-57
2023/06/22 10:35:42;;;;;;;9.70;7.95;;;;;;;29.43;53.11;66115.78;5091492;28;20203;-58
2023/06/22 10:38:08;;;;;;;9.27;6.75;;;;;;;29.53;46.39;66130.06;5091644;28;20200;-60
2023/06/22 10:40:34;;;;;;;7.68;6.88;;;;;;;29.44;47.34;66119.47;5091180;28;20199;-60
2023/06/22 10:43:00;;;;;;;8.15;7.25;;;;;;;29.40;48.55;66115.59;5072916;28;20220;-60
2023/06/22 10:45:25;;;;;;;9.73;7.88;;;;;;;29.39;49.36;66117.06;5091691;28;20177;-55
2023/06/22 10:47:50;;;;;;;14.82;8.80;;;;;;;29.81;51.07;66161.28;5091657;28;20196;-55
2023/06/22 10:50:16;;;;;;;9.23;8.40;;;;;;;30.26;50.80;66210.31;5091513;28;20211;-57
2023/06/22 10:52:41;;;;;;;8.55;7.60;;;;;;;30.40;51.45;66226.47;5091271;28;20203;-58
2023/06/22 10:55:08;;;;;;;10.15;9.15;;;;;;;30.60;47.89;66248.78;5091343;28;20223;-55
2023/06/22 10:57:34;;;;;;;11.35;9.85;;;;;;;30.94;49.42;66283.00;5091408;28;20200;-56
2023/06/22 10:59:59;;;;;;;9.90;7.85;;;;;;;30.34;46.41;66219.25;5073076;28;20722;-64
2023/06/22 11:02:25;;;;;;;9.35;8.45;;;;;;;30.52;47.06;66239.31;5091148;28;20561;-54
2023/06/22 11:04:51;;;;;;;8.48;7.50;;;;;;;30.36;47.89;66218.88;5072950;28;20722;-55
2023/06/22 11:07:16;;;;;;;10.65;8.07;;;;;;;30.72;44.18;66261.59;5091215;28;20203;-55
2023/06/22 11:09:45;;;;;;;8.88;7.80;;;;;;;30.66;46.31;66252.84;5091482;28;20218;-55
2023/06/22 11:12:11;;;;;;;7.82;7.13;;;;;;;30.37;46.06;66222.59;5090935;28;20628;-58
2023/06/22 11:14:38;;;;;;;8.73;7.75;;;;;;;30.62;45.12;66248.41;5091211;28;20255;-55
2023/06/22 11:17:04;;;;;;;8.40;7.65;;;;;;;31.07;46.12;66300.66;5091148;28;20212;-55
2023/06/22 11:19:29;;;;;;;8.38;7.57;;;;;;;30.56;45.25;66244.31;5091295;28;20729;-55
2023/06/22 11:21:55;;;;;;;7.88;7.00;;;;;;;30.75;44.31;66264.38;5090879;28;20219;-55
2023/06/22 11:24:20;;;;;;;7.40;6.60;;;;;;;31.17;44.13;66311.78;5072854;28;20225;-59